Time;durP1;ratioP1;P1;durP2;ratioP2;P2;SDS_P1;SDS_P2;PMS_P1;PMS_P2;Temp;Humidity;BMP_temperature;BMP_pressure;BME280_temperature;BME280_humidity;BME280_pressure;Samples;Min_cycle;Max_cycle;Signal;HPM_P1;HPM_P2
2022/05/10 00:01:21;;;;;;;19.40;15.80;;;;;;;;;;5043321;28;20403;-85
2022/05/10 00:03:47;;;;;;;21.40;16.37;;;;;;;;;;5041195;28;20434;-87
2022/05/10 00:06:13;;;;;;;19.97;17.80;;;;;;;;;;5042924;28;20425;-87
2022/05/10 00:08:39;;;;;;;20.93;17.57;;;;;;;;;;5044430;28;20498;-87
2022/05/10 00:11:06;;;;;;;19.40;17.40;;;;;;;;;;5044159;28;20474;-87
2022/05/10 00:13:32;;;;;;;21.97;18.20;;;;;;;;;;5043991;28;20466;-87
2022/05/10 00:15:58;;;;;;;20.30;17.17;;;;;;;;;;5044032;28;20886;-87
2022/05/10 00:18:26;;;;;;;19.43;16.87;;;;;;;;;;5043587;28;20450;-87
2022/05/10 00:20:52;;;;;;;18.60;16.83;;;;;;;;;;5043956;28;20411;-87
2022/05/10 00:23:18;;;;;;;21.50;16.60;;;;;;;;;;5043509;28;20410;-87
2022/05/10 00:25:44;;;;;;;18.00;16.20;;;;;;;;;;5043736;28;20482;-87
2022/05/10 00:28:11;;;;;;;17.83;16.10;;;;;;;;;;5044314;28;20418;-86
2022/05/10 00:30:37;;;;;;;22.87;18.10;;;;;;;;;;5044384;28;20410;-87
2022/05/10 00:33:04;;;;;;;22.97;17.50;;;;;;;;;;5043014;28;20407;-87
2022/05/10 00:35:31;;;;;;;18.20;16.33;;;;;;;;;;5043799;28;20883;-87
2022/05/10 00:37:59;;;;;;;19.67;17.67;;;;;;;;;;5043135;28;20433;-87
2022/05/10 00:40:27;;;;;;;19.50;17.40;;;;;;;;;;5043070;28;20410;-87
2022/05/10 00:42:56;;;;;;;22.33;17.50;;;;;;;;;;5042001;28;20410;-87
2022/05/10 00:45:32;;;;;;;18.03;16.13;;;;;;;;;;5042680;28;20553;-87
2022/05/10 00:48:01;;;;;;;19.77;17.77;;;;;;;;;;5041859;28;20794;-87
2022/05/10 00:50:27;;;;;;;19.20;17.30;;;;;;;;;;5043469;28;20406;-87
2022/05/10 00:53:05;;;;;;;30.83;16.80;;;;;;;;;;5044028;28;20410;-87
2022/05/10 00:55:46;;;;;;;18.87;17.07;;;;;;;;;;5042030;28;20402;-87
2022/05/10 00:58:19;;;;;;;19.07;17.20;;;;;;;;;;5043374;28;20452;-87
2022/05/10 01:00:46;;;;;;;19.23;17.23;;;;;;;;;;5046796;28;20398;-87
2022/05/10 01:03:22;;;;;;;18.20;16.47;;;;;;;;;;5047521;28;20428;-87
2022/05/10 01:06:11;;;;;;;20.17;17.93;;;;;;;;;;5040809;28;20926;-85
2022/05/10 01:08:52;;;;;;;20.23;18.13;;;;;;;;;;5041693;28;20414;-86
2022/05/10 01:11:21;;;;;;;20.10;18.00;;;;;;;;;;5042001;28;20438;-86
2022/05/10 01:13:50;;;;;;;21.27;19.17;;;;;;;;;;5040698;28;20410;-86
2022/05/10 01:16:19;;;;;;;20.30;17.27;;;;;;;;;;5041485;28;20422;-86
2022/05/10 01:18:46;;;;;;;21.77;19.50;;;;;;;;;;5040465;28;20450;-86
2022/05/10 01:21:30;;;;;;;20.90;18.50;;;;;;;;;;5042180;28;20407;-87
2022/05/10 01:23:56;;;;;;;21.50;19.20;;;;;;;;;;5040808;28;20953;-87
2022/05/10 01:26:25;;;;;;;19.80;17.80;;;;;;;;;;5042104;28;20395;-87
2022/05/10 01:28:55;;;;;;;23.00;20.67;;;;;;;;;;5042312;28;20548;-87
2022/05/10 01:31:28;;;;;;;24.17;18.67;;;;;;;;;;5045095;28;20402;-87
2022/05/10 01:34:00;;;;;;;22.17;17.83;;;;;;;;;;5046912;28;20415;-87
2022/05/10 01:36:47;;;;;;;20.80;18.43;;;;;;;;;;5045399;28;20410;-86
2022/05/10 01:39:16;;;;;;;20.93;18.93;;;;;;;;;;5044064;28;20450;-87
2022/05/10 01:42:01;;;;;;;19.43;17.43;;;;;;;;;;5043724;28;20417;-87
2022/05/10 01:44:30;;;;;;;19.73;17.83;;;;;;;;;;5042756;28;20434;-86
2022/05/10 01:47:16;;;;;;;20.97;17.80;;;;;;;;;;5042855;28;20437;-85
2022/05/10 01:49:48;;;;;;;21.60;18.03;;;;;;;;;;5038428;28;20419;-86
2022/05/10 01:52:17;;;;;;;22.70;19.00;;;;;;;;;;5020200;28;20407;-87
2022/05/10 01:54:46;;;;;;;23.20;18.50;;;;;;;;;;5024571;28;20410;-88
2022/05/10 01:57:14;;;;;;;20.73;18.40;;;;;;;;;;5023124;28;20851;-86
2022/05/10 01:59:44;;;;;;;21.80;17.97;;;;;;;;;;5022602;28;20412;-86
2022/05/10 02:02:11;;;;;;;24.90;17.73;;;;;;;;;;5024151;28;20406;-86
2022/05/10 02:04:39;;;;;;;23.73;19.27;;;;;;;;;;5021613;28;20924;-87
2022/05/10 02:07:08;;;;;;;22.20;16.73;;;;;;;;;;5020726;28;20423;-87
2022/05/10 02:09:37;;;;;;;21.03;18.83;;;;;;;;;;5021304;28;20407;-86
2022/05/10 02:12:03;;;;;;;19.83;16.37;;;;;;;;;;5021844;28;20412;-87
2022/05/10 02:14:32;;;;;;;21.10;18.70;;;;;;;;;;5020733;28;20438;-87
2022/05/10 02:17:01;;;;;;;22.50;20.10;;;;;;;;;;5020625;28;20479;-87
2022/05/10 02:19:46;;;;;;;18.83;16.87;;;;;;;;;;5021013;28;20811;-87
2022/05/10 02:22:21;;;;;;;20.50;18.50;;;;;;;;;;5021627;28;20418;-87
2022/05/10 02:24:53;;;;;;;23.90;17.13;;;;;;;;;;5019228;28;20446;-86
2022/05/10 02:27:21;;;;;;;18.67;16.73;;;;;;;;;;5018990;28;20412;-86
2022/05/10 02:29:49;;;;;;;20.60;16.97;;;;;;;;;;5020937;28;20477;-87
2022/05/10 02:35:06;;;;;;;18.73;16.70;;;;;;;;;;5020928;28;20438;-85
2022/05/10 02:37:33;;;;;;;17.13;13.70;;;;;;;;;;5026479;28;20426;-84
2022/05/10 02:39:59;;;;;;;18.97;16.87;;;;;;;;;;5039037;28;20398;-85
2022/05/10 02:42:27;;;;;;;22.27;15.57;;;;;;;;;;5024695;28;20492;-86
2022/05/10 02:44:55;;;;;;;17.67;14.00;;;;;;;;;;5022977;28;20447;-87
2022/05/10 02:47:29;;;;;;;14.47;13.07;;;;;;;;;;5022722;28;20419;-87
2022/05/10 02:49:55;;;;;;;15.47;13.90;;;;;;;;;;5020543;28;20406;-86
2022/05/10 02:52:21;;;;;;;15.77;14.07;;;;;;;;;;5019428;28;20403;-86
2022/05/10 02:54:47;;;;;;;15.50;13.57;;;;;;;;;;5020506;28;20411;-86
2022/05/10 02:57:13;;;;;;;18.90;14.43;;;;;;;;;;5023645;28;20445;-87
2022/05/10 02:59:40;;;;;;;18.37;14.60;;;;;;;;;;5021260;28;20494;-87
2022/05/10 03:02:12;;;;;;;16.50;13.33;;;;;;;;;;5020842;28;20415;-87
2022/05/10 03:04:40;;;;;;;16.33;14.63;;;;;;;;;;5020725;28;20430;-87
2022/05/10 03:07:07;;;;;;;15.37;13.67;;;;;;;;;;5020082;28;20442;-87
2022/05/10 03:09:33;;;;;;;15.17;13.57;;;;;;;;;;5020559;28;20410;-87
2022/05/10 03:12:02;;;;;;;16.00;14.17;;;;;;;;;;5020737;28;20808;-87
2022/05/10 03:14:28;;;;;;;16.97;14.10;;;;;;;;;;5020121;28;20411;-87
2022/05/10 03:16:54;;;;;;;14.60;13.10;;;;;;;;;;5018817;28;20431;-87
2022/05/10 03:19:20;;;;;;;17.73;14.60;;;;;;;;;;5019066;28;20925;-87
2022/05/10 03:21:46;;;;;;;17.80;13.53;;;;;;;;;;5020598;28;20418;-87
2022/05/10 03:24:12;;;;;;;14.27;12.80;;;;;;;;;;5020665;28;20446;-87
2022/05/10 03:26:40;;;;;;;16.23;13.57;;;;;;;;;;5018576;28;20435;-87
2022/05/10 03:29:06;;;;;;;14.20;12.80;;;;;;;;;;5019395;28;20435;-87
2022/05/10 03:31:32;;;;;;;18.63;15.80;;;;;;;;;;5020285;28;20490;-87
2022/05/10 03:36:43;;;;;;;17.57;13.93;;;;;;;;;;5022346;28;20391;-87
2022/05/10 03:39:09;;;;;;;15.83;14.13;;;;;;;;;;5020880;28;20449;-87
2022/05/10 03:41:35;;;;;;;15.40;13.80;;;;;;;;;;5023952;28;20430;-87
2022/05/10 03:44:01;;;;;;;15.10;13.60;;;;;;;;;;5023748;28;20451;-87
2022/05/10 03:46:27;;;;;;;18.37;15.03;;;;;;;;;;5024024;28;20486;-86
2022/05/10 03:48:53;;;;;;;17.10;13.60;;;;;;;;;;5024847;28;20415;-87
2022/05/10 03:51:19;;;;;;;14.90;13.30;;;;;;;;;;5023983;28;20418;-87
2022/05/10 03:53:45;;;;;;;15.27;13.73;;;;;;;;;;5022507;28;20439;-87
2022/05/10 03:56:11;;;;;;;15.13;13.33;;;;;;;;;;5023676;28;20437;-87
2022/05/10 03:58:38;;;;;;;16.13;13.63;;;;;;;;;;5024203;28;20431;-87
2022/05/10 04:01:06;;;;;;;15.00;12.87;;;;;;;;;;5025537;28;20422;-85
2022/05/10 04:03:32;;;;;;;15.40;13.33;;;;;;;;;;5036631;28;20849;-85
2022/05/10 04:05:58;;;;;;;18.57;15.07;;;;;;;;;;5033467;28;20407;-87
2022/05/10 04:08:24;;;;;;;15.27;13.67;;;;;;;;;;5024440;28;20449;-87
2022/05/10 04:10:50;;;;;;;13.87;11.60;;;;;;;;;;5025062;28;20410;-87
2022/05/10 04:13:16;;;;;;;13.10;11.50;;;;;;;;;;5038276;28;20449;-86
2022/05/10 04:15:42;;;;;;;12.93;10.40;;;;;;;;;;5042966;28;20407;-87
2022/05/10 04:18:08;;;;;;;16.57;11.93;;;;;;;;;;5043387;28;20442;-87
2022/05/10 04:20:34;;;;;;;14.40;11.93;;;;;;;;;;5043389;28;20402;-87
2022/05/10 04:23:01;;;;;;;16.23;13.40;;;;;;;;;;5043109;28;20399;-87
2022/05/10 04:25:27;;;;;;;12.40;11.07;;;;;;;;;;5043859;28;20469;-87
2022/05/10 04:27:53;;;;;;;18.53;15.37;;;;;;;;;;5042849;28;20437;-87
2022/05/10 04:30:20;;;;;;;15.37;13.10;;;;;;;;;;5043969;28;20394;-87
2022/05/10 04:32:46;;;;;;;15.90;12.70;;;;;;;;;;5043717;28;20415;-86
2022/05/10 04:35:12;;;;;;;15.57;13.23;;;;;;;;;;5042002;28;20903;-86
2022/05/10 04:37:38;;;;;;;14.13;12.63;;;;;;;;;;5042965;28;20426;-86
2022/05/10 04:42:52;;;;;;;13.60;12.20;;;;;;;;;;5051668;28;20462;-86
2022/05/10 04:45:18;;;;;;;13.50;12.10;;;;;;;;;;5046111;28;20446;-86
2022/05/10 04:47:44;;;;;;;15.90;11.10;;;;;;;;;;5053651;28;20509;-84
2022/05/10 04:50:11;;;;;;;14.33;11.70;;;;;;;;;;5056630;28;20398;-85
2022/05/10 04:52:38;;;;;;;13.10;11.80;;;;;;;;;;5056308;28;20406;-84
2022/05/10 04:55:05;;;;;;;15.20;12.90;;;;;;;;;;5054125;28;20429;-87
2022/05/10 04:57:31;;;;;;;13.53;12.10;;;;;;;;;;5045573;28;20423;-87
2022/05/10 04:59:57;;;;;;;14.80;12.57;;;;;;;;;;5043185;28;20472;-87
2022/05/10 05:02:23;;;;;;;12.87;11.57;;;;;;;;;;5044094;28;20423;-87
2022/05/10 05:04:49;;;;;;;13.80;11.27;;;;;;;;;;5043519;28;20445;-87
2022/05/10 05:07:15;;;;;;;11.00;9.83;;;;;;;;;;5045146;28;20449;-87
2022/05/10 05:09:41;;;;;;;32.50;11.63;;;;;;;;;;5044391;28;20466;-87
2022/05/10 05:12:07;;;;;;;13.03;9.53;;;;;;;;;;5044872;28;20453;-87
2022/05/10 05:14:33;;;;;;;10.60;8.33;;;;;;;;;;5044050;28;20449;-87
2022/05/10 05:16:59;;;;;;;12.27;8.50;;;;;;;;;;5045018;28;20786;-87
2022/05/10 05:19:26;;;;;;;10.10;8.50;;;;;;;;;;5077311;22;20906;-87
2022/05/10 05:21:52;;;;;;;10.90;9.70;;;;;;;;;;5033037;28;20797;-87
2022/05/10 05:24:18;;;;;;;11.27;8.47;;;;;;;;;;5040986;28;20530;-87
2022/05/10 05:26:46;;;;;;;12.33;8.23;;;;;;;;;;5042063;28;20916;-86
2022/05/10 05:29:12;;;;;;;10.10;8.57;;;;;;;;;;5040380;28;20429;-85
2022/05/10 05:31:39;;;;;;;10.20;8.00;;;;;;;;;;5041227;28;20438;-87
2022/05/10 05:34:05;;;;;;;14.93;7.93;;;;;;;;;;5041107;28;20402;-87
2022/05/10 05:36:31;;;;;;;9.70;8.10;;;;;;;;;;5040448;28;20441;-87
2022/05/10 05:38:57;;;;;;;9.60;6.93;;;;;;;;;;5041120;28;20468;-85
2022/05/10 05:41:23;;;;;;;11.70;8.63;;;;;;;;;;5040340;28;20413;-86
2022/05/10 05:43:49;;;;;;;12.53;7.70;;;;;;;;;;5041135;28;20457;-87
2022/05/10 05:46:15;;;;;;;9.10;7.80;;;;;;;;;;5040335;28;20426;-86
2022/05/10 05:48:41;;;;;;;9.40;7.87;;;;;;;;;;5039388;28;20422;-86
2022/05/10 05:51:08;;;;;;;8.40;6.93;;;;;;;;;;5039718;28;20414;-86
2022/05/10 05:53:34;;;;;;;10.20;6.93;;;;;;;;;;5039733;28;20949;-87
2022/05/10 05:56:04;;;;;;;9.27;7.30;;;;;;;;;;5040170;28;20466;-86
2022/05/10 05:58:30;;;;;;;8.70;6.90;;;;;;;;;;5039519;28;20438;-87
2022/05/10 06:00:57;;;;;;;8.63;7.70;;;;;;;;;;5040647;28;20457;-87
2022/05/10 06:03:23;;;;;;;7.20;6.10;;;;;;;;;;5039550;28;20445;-87
2022/05/10 06:05:49;;;;;;;8.23;7.17;;;;;;;;;;5039051;28;20414;-86
2022/05/10 06:08:16;;;;;;;9.10;6.70;;;;;;;;;;5038870;28;20419;-86
2022/05/10 06:10:44;;;;;;;9.40;7.27;;;;;;;;;;5039576;28;20522;-86
2022/05/10 06:13:10;;;;;;;9.00;6.57;;;;;;;;;;5039867;28;20410;-87
2022/05/10 06:15:37;;;;;;;7.30;6.30;;;;;;;;;;5039930;28;20449;-86
2022/05/10 06:18:04;;;;;;;6.87;5.63;;;;;;;;;;5039134;28;20755;-86
2022/05/10 06:20:30;;;;;;;11.10;5.70;;;;;;;;;;5039460;28;20493;-87
2022/05/10 06:22:56;;;;;;;6.37;5.30;;;;;;;;;;5038323;28;20406;-87
2022/05/10 06:25:24;;;;;;;7.77;6.77;;;;;;;;;;5038543;28;20525;-86
2022/05/10 06:27:51;;;;;;;8.70;5.60;;;;;;;;;;5038347;28;20509;-87
2022/05/10 06:30:19;;;;;;;6.47;5.80;;;;;;;;;;5039623;28;20422;-86
2022/05/10 06:32:46;;;;;;;6.00;5.40;;;;;;;;;;5038222;28;20468;-86
2022/05/10 06:35:12;;;;;;;7.07;6.00;;;;;;;;;;5047482;28;20410;-86
2022/05/10 06:40:23;;;;;;;7.30;6.50;;;;;;;;;;5051978;28;20382;-85
2022/05/10 06:42:49;;;;;;;6.77;5.63;;;;;;;;;;5050679;28;20399;-85
2022/05/10 06:45:17;;;;;;;7.60;6.43;;;;;;;;;;5049043;28;20508;-86
2022/05/10 06:47:46;;;;;;;9.37;6.40;;;;;;;;;;5049173;28;20403;-86
2022/05/10 06:50:13;;;;;;;7.40;6.47;;;;;;;;;;5041459;28;20490;-87
2022/05/10 06:52:41;;;;;;;8.50;6.23;;;;;;;;;;5040771;28;20407;-86
2022/05/10 06:55:07;;;;;;;7.37;6.00;;;;;;;;;;5040363;28;20936;-86
2022/05/10 06:57:33;;;;;;;6.87;6.17;;;;;;;;;;5040273;28;20420;-87
2022/05/10 07:00:00;;;;;;;17.10;6.90;;;;;;;;;;5037929;28;20600;-88
2022/05/10 07:02:32;;;;;;;7.30;6.30;;;;;;;;;;5040011;28;20405;-86
2022/05/10 07:04:58;;;;;;;6.83;6.13;;;;;;;;;;5040652;28;20457;-86
2022/05/10 07:07:24;;;;;;;8.07;7.23;;;;;;;;;;5043587;28;20410;-86
2022/05/10 07:09:52;;;;;;;11.80;6.80;;;;;;;;;;5038636;28;20461;-86
2022/05/10 07:12:18;;;;;;;7.63;6.90;;;;;;;;;;5029195;28;20421;-85
2022/05/10 07:14:45;;;;;;;7.43;6.73;;;;;;;;;;5026059;28;20435;-85
2022/05/10 07:17:12;;;;;;;9.73;7.37;;;;;;;;;;5035451;28;20407;-86
2022/05/10 07:19:38;;;;;;;9.70;7.20;;;;;;;;;;5034502;28;20482;-85
2022/05/10 07:22:04;;;;;;;7.83;6.80;;;;;;;;;;5026140;28;20410;-85
2022/05/10 07:24:30;;;;;;;14.07;7.63;;;;;;;;;;5030798;28;20459;-87
2022/05/10 07:26:56;;;;;;;6.83;6.13;;;;;;;;;;5036462;28;20438;-85
2022/05/10 07:29:23;;;;;;;8.83;7.40;;;;;;;;;;5025486;28;20433;-85
2022/05/10 07:31:49;;;;;;;7.73;6.93;;;;;;;;;;5035282;28;20407;-84
2022/05/10 07:34:16;;;;;;;7.20;6.50;;;;;;;;;;5018100;28;20411;-84
2022/05/10 07:36:42;;;;;;;8.23;7.10;;;;;;;;;;5018630;28;20419;-84
2022/05/10 07:39:09;;;;;;;9.53;7.27;;;;;;;;;;5034115;28;20504;-84
2022/05/10 07:41:36;;;;;;;9.40;7.30;;;;;;;;;;5034894;28;20465;-84
2022/05/10 07:44:03;;;;;;;7.87;7.07;;;;;;;;;;5020684;28;20454;-85
2022/05/10 07:46:30;;;;;;;10.37;7.63;;;;;;;;;;5018397;28;20756;-83
2022/05/10 07:48:58;;;;;;;10.80;6.67;;;;;;;;;;5018070;28;20454;-82
2022/05/10 07:51:24;;;;;;;9.20;6.50;;;;;;;;;;5035151;28;20417;-83
2022/05/10 07:54:11;;;;;;;8.80;7.17;;;;;;;;;;5035786;28;20427;-83
2022/05/10 07:56:38;;;;;;;7.97;6.37;;;;;;;;;;5025147;28;20439;-84
2022/05/10 07:59:10;;;;;;;7.43;6.23;;;;;;;;;;5018538;28;20423;-84
2022/05/10 08:01:38;;;;;;;7.70;7.00;;;;;;;;;;5019033;28;20415;-86
2022/05/10 08:04:08;;;;;;;9.40;7.20;;;;;;;;;;5019435;28;20469;-85
2022/05/10 08:06:34;;;;;;;7.77;6.97;;;;;;;;;;5018233;28;20494;-84
2022/05/10 08:09:00;;;;;;;7.63;6.83;;;;;;;;;;5019253;28;20423;-84
2022/05/10 08:11:26;;;;;;;8.67;7.00;;;;;;;;;;5023935;28;20407;-84
2022/05/10 08:13:55;;;;;;;7.60;6.83;;;;;;;;;;5024815;28;20410;-85
2022/05/10 08:16:21;;;;;;;6.63;5.13;;;;;;;;;;5021971;28;20403;-86
2022/05/10 08:18:49;;;;;;;7.20;6.20;;;;;;;;;;5019534;28;20549;-85
2022/05/10 08:21:15;;;;;;;7.03;6.30;;;;;;;;;;5019600;28;20923;-85
2022/05/10 08:23:42;;;;;;;7.60;6.40;;;;;;;;;;5020966;28;20400;-85
2022/05/10 08:26:08;;;;;;;7.60;6.80;;;;;;;;;;5022082;28;20472;-85
2022/05/10 08:28:35;;;;;;;8.63;7.17;;;;;;;;;;5023186;28;20907;-84
2022/05/10 08:31:02;;;;;;;8.10;6.57;;;;;;;;;;5023834;28;20509;-85
2022/05/10 08:33:30;;;;;;;7.50;6.43;;;;;;;;;;5025371;28;20399;-84
2022/05/10 08:35:57;;;;;;;7.13;6.43;;;;;;;;;;5023916;28;20403;-84
2022/05/10 08:38:24;;;;;;;6.40;5.80;;;;;;;;;;5023955;28;20517;-84
2022/05/10 08:41:02;;;;;;;11.63;6.73;;;;;;;;;;5025010;28;20406;-84
2022/05/10 08:43:32;;;;;;;10.03;7.00;;;;;;;;;;5024205;28;20403;-84
2022/05/10 08:45:58;;;;;;;7.47;6.70;;;;;;;;;;5025986;28;20403;-84
2022/05/10 08:48:26;;;;;;;8.10;6.67;;;;;;;;;;5025572;28;20450;-84
2022/05/10 08:50:52;;;;;;;7.67;6.33;;;;;;;;;;5028755;28;20400;-86
2022/05/10 08:53:21;;;;;;;8.10;7.40;;;;;;;;;;5025693;28;20832;-85
2022/05/10 08:55:54;;;;;;;8.43;6.90;;;;;;;;;;5021851;28;20485;-85
2022/05/10 08:58:20;;;;;;;12.67;7.77;;;;;;;;;;5022472;28;20811;-84
2022/05/10 09:00:48;;;;;;;9.37;6.73;;;;;;;;;;5023415;28;20466;-84
2022/05/10 09:03:20;;;;;;;6.87;6.27;;;;;;;;;;5024122;28;20415;-85
2022/05/10 09:05:46;;;;;;;7.50;6.80;;;;;;;;;;5022187;28;20462;-85
2022/05/10 09:08:22;;;;;;;9.43;6.70;;;;;;;;;;5022638;28;20442;-84
2022/05/10 09:10:54;;;;;;;7.63;6.83;;;;;;;;;;5022794;28;20411;-85
2022/05/10 09:13:21;;;;;;;10.10;6.73;;;;;;;;;;5027529;28;20912;-85
2022/05/10 09:15:58;;;;;;;7.17;5.70;;;;;;;;;;5029261;28;20411;-84
2022/05/10 09:18:25;;;;;;;8.70;6.73;;;;;;;;;;5030293;28;20485;-84
2022/05/10 09:21:10;;;;;;;10.00;6.77;;;;;;;;;;5030206;28;20414;-85
2022/05/10 09:23:55;;;;;;;8.07;6.47;;;;;;;;;;5031666;28;20465;-85
2022/05/10 09:26:24;;;;;;;6.23;5.63;;;;;;;;;;5029437;28;20902;-87
2022/05/10 09:28:59;;;;;;;8.23;6.63;;;;;;;;;;5028062;28;20950;-87
2022/05/10 09:37:19;;;;;;;7.60;6.23;;;;;;;;;;5029643;28;20402;-84
2022/05/10 09:39:57;;;;;;;6.00;5.40;;;;;;;;;;5029071;28;20922;-85
2022/05/10 09:42:32;;;;;;;7.20;5.57;;;;;;;;;;5029285;28;20422;-87
2022/05/10 09:45:01;;;;;;;9.80;5.70;;;;;;;;;;5024920;28;20439;-84
2022/05/10 09:47:27;;;;;;;6.80;6.10;;;;;;;;;;5024416;28;20415;-87
2022/05/10 09:49:54;;;;;;;5.30;4.37;;;;;;;;;;5022035;28;20439;-87
2022/05/10 09:52:27;;;;;;;5.30;4.80;;;;;;;;;;5023243;28;20895;-84
2022/05/10 09:54:56;;;;;;;6.10;5.50;;;;;;;;;;5022971;28;20388;-86
2022/05/10 09:57:26;;;;;;;12.93;5.87;;;;;;;;;;5024572;28;20411;-86
2022/05/10 09:59:52;;;;;;;5.47;4.90;;;;;;;;;;5025413;28;20419;-87
2022/05/10 10:02:30;;;;;;;6.63;5.00;;;;;;;;;;5024079;28;20405;-88
2022/05/10 10:04:56;;;;;;;6.60;4.50;;;;;;;;;;5022563;28;21005;-86
2022/05/10 10:07:25;;;;;;;4.73;4.23;;;;;;;;;;5021687;28;20411;-87
2022/05/10 10:10:10;;;;;;;5.97;4.97;;;;;;;;;;5020470;28;20467;-85
2022/05/10 10:12:43;;;;;;;5.03;4.33;;;;;;;;;;5020679;28;20768;-86
2022/05/10 10:15:28;;;;;;;5.70;4.93;;;;;;;;;;5021904;28;20395;-86
2022/05/10 10:17:56;;;;;;;4.70;4.23;;;;;;;;;;5018755;28;20407;-85
2022/05/10 10:20:22;;;;;;;4.93;4.50;;;;;;;;;;5020230;28;20479;-85
2022/05/10 10:22:51;;;;;;;6.20;4.93;;;;;;;;;;5019724;28;20411;-87
2022/05/10 10:25:20;;;;;;;4.80;4.30;;;;;;;;;;5019738;28;20461;-87
2022/05/10 10:27:57;;;;;;;7.03;4.00;;;;;;;;;;5019316;28;20434;-87
2022/05/10 10:30:28;;;;;;;5.70;4.07;;;;;;;;;;5019724;28;20406;-85
2022/05/10 10:32:58;;;;;;;5.83;5.23;;;;;;;;;;5018183;28;20498;-85
2022/05/10 10:35:36;;;;;;;4.57;4.07;;;;;;;;;;5020325;28;20789;-85
2022/05/10 10:38:07;;;;;;;5.30;4.80;;;;;;;;;;5016779;28;20430;-84
2022/05/10 10:40:35;;;;;;;5.60;4.70;;;;;;;;;;5018324;28;20391;-84
2022/05/10 10:43:16;;;;;;;7.60;6.10;;;;;;;;;;5018540;28;20523;-85
2022/05/10 11:37:12;;;;;;;7.73;5.10;;;;;;;;;;5037198;28;20442;-84
2022/05/10 11:39:47;;;;;;;8.03;5.30;;;;;;;;;;5024884;28;20418;-84
2022/05/10 11:42:13;;;;;;;6.63;5.03;;;;;;;;;;5024261;28;20387;-84
2022/05/10 11:44:58;;;;;;;7.10;4.97;;;;;;;;;;5024505;28;20474;-84
2022/05/10 11:47:40;;;;;;;6.50;5.43;;;;;;;;;;5024143;28;20953;-84
2022/05/10 11:50:06;;;;;;;7.10;5.57;;;;;;;;;;5024071;28;20405;-84
2022/05/10 11:52:41;;;;;;;6.17;5.57;;;;;;;;;;5024028;28;20415;-84
2022/05/10 11:55:26;;;;;;;6.27;5.30;;;;;;;;;;5023419;28;20437;-85
2022/05/10 11:57:56;;;;;;;5.93;5.37;;;;;;;;;;5019262;28;20465;-82
2022/05/10 12:00:31;;;;;;;5.80;4.97;;;;;;;;;;5017301;28;20473;-83
2022/05/10 12:03:01;;;;;;;7.03;5.67;;;;;;;;;;5020163;28;20904;-84
2022/05/10 12:05:28;;;;;;;8.17;6.00;;;;;;;;;;5021397;28;20459;-84
2022/05/10 12:08:00;;;;;;;8.43;5.47;;;;;;;;;;5023787;28;20823;-83
2022/05/10 12:10:29;;;;;;;7.17;5.50;;;;;;;;;;5022712;28;20916;-82
2022/05/10 12:12:57;;;;;;;6.30;5.10;;;;;;;;;;5025443;28;20430;-83
2022/05/10 12:21:26;;;;;;;4.20;3.80;;;;;;;;;;5039310;28;20432;-83
2022/05/10 12:24:02;;;;;;;6.27;5.10;;;;;;;;;;5051702;28;21112;-84
2022/05/10 12:26:37;;;;;;;11.13;4.40;;;;;;;;;;5051552;28;20398;-84
2022/05/10 12:29:06;;;;;;;6.87;4.13;;;;;;;;;;5048935;28;20390;-84
2022/05/10 12:31:33;;;;;;;5.20;4.70;;;;;;;;;;5048324;28;20395;-84
2022/05/10 12:34:03;;;;;;;5.97;4.90;;;;;;;;;;5047309;28;20414;-84
2022/05/10 12:36:31;;;;;;;4.93;4.40;;;;;;;;;;5046721;28;20409;-84
2022/05/10 12:39:15;;;;;;;5.13;4.57;;;;;;;;;;5047562;28;20464;-84
2022/05/10 12:41:41;;;;;;;5.97;4.33;;;;;;;;;;5047809;28;20426;-83
2022/05/10 12:44:20;;;;;;;7.00;4.07;;;;;;;;;;5047593;28;20458;-84
2022/05/10 12:47:08;;;;;;;4.77;4.30;;;;;;;;;;5048077;28;20391;-84
2022/05/10 12:49:40;;;;;;;6.43;4.80;;;;;;;;;;5045146;28;20433;-82
2022/05/10 12:52:20;;;;;;;5.40;4.67;;;;;;;;;;5043366;28;20383;-83
2022/05/10 12:54:48;;;;;;;7.30;4.47;;;;;;;;;;5041959;28;20437;-84
2022/05/10 12:57:16;;;;;;;6.20;4.20;;;;;;;;;;5044147;28;20415;-83
2022/05/10 13:00:03;;;;;;;5.33;4.47;;;;;;;;;;5042978;28;20532;-84
2022/05/10 13:02:30;;;;;;;7.60;4.50;;;;;;;;;;5030798;28;20759;-84
2022/05/10 13:05:00;;;;;;;6.50;4.80;;;;;;;;;;5043268;28;20454;-84
2022/05/10 13:07:37;;;;;;;4.60;4.10;;;;;;;;;;5042517;28;20414;-84
2022/05/10 13:10:07;;;;;;;4.13;3.77;;;;;;;;;;5046824;28;20735;-84
2022/05/10 13:12:54;;;;;;;5.73;3.80;;;;;;;;;;5054696;28;20484;-83
2022/05/10 13:15:24;;;;;;;5.67;3.60;;;;;;;;;;5056205;28;20405;-84
2022/05/10 13:17:54;;;;;;;5.00;3.90;;;;;;;;;;5045526;28;20418;-84
2022/05/10 13:20:25;;;;;;;6.43;4.10;;;;;;;;;;5057594;28;20402;-84
2022/05/10 13:23:02;;;;;;;4.70;3.93;;;;;;;;;;5051915;28;20445;-83
2022/05/10 13:25:33;;;;;;;4.50;3.97;;;;;;;;;;5046347;28;20974;-84
2022/05/10 13:28:17;;;;;;;3.80;3.40;;;;;;;;;;5058067;28;20517;-83
2022/05/10 13:30:45;;;;;;;4.57;3.70;;;;;;;;;;5050829;28;20844;-84
2022/05/10 13:33:13;;;;;;;5.17;3.80;;;;;;;;;;5049293;28;20434;-84
2022/05/10 13:35:41;;;;;;;9.60;5.30;;;;;;;;;;5058689;28;20456;-85
2022/05/10 13:38:15;;;;;;;6.67;4.67;;;;;;;;;;5046917;28;20401;-84
2022/05/10 13:40:45;;;;;;;7.80;5.30;;;;;;;;;;5053135;28;20429;-84
2022/05/10 13:43:14;;;;;;;10.13;6.10;;;;;;;;;;5056499;28;20539;-84
2022/05/10 13:45:41;;;;;;;6.07;4.73;;;;;;;;;;5041846;28;20458;-85
2022/05/10 13:48:12;;;;;;;4.00;3.60;;;;;;;;;;5058458;28;20407;-83
2022/05/10 13:50:40;;;;;;;5.53;3.90;;;;;;;;;;5047835;28;20432;-83
2022/05/10 13:53:07;;;;;;;4.83;4.43;;;;;;;;;;5039615;28;20973;-83
2022/05/10 13:55:33;;;;;;;5.90;3.43;;;;;;;;;;5050484;28;20443;-84
2022/05/10 13:58:01;;;;;;;16.47;4.00;;;;;;;;;;5042001;28;20878;-84
2022/05/10 14:00:47;;;;;;;4.77;2.90;;;;;;;;;;5053054;28;20421;-84
2022/05/10 14:03:15;;;;;;;4.40;3.10;;;;;;;;;;5055314;28;20531;-84
2022/05/10 14:05:46;;;;;;;5.10;3.37;;;;;;;;;;5056592;28;20493;-83
2022/05/10 14:08:12;;;;;;;4.15;3.20;;;;;;;;;;5048143;28;20420;-81
2022/05/10 14:10:39;;;;;;;4.37;3.20;;;;;;;;;;5055187;28;20176;-85
2022/05/10 14:13:08;;;;;;;4.10;3.40;;;;;;;;;;5060386;28;20444;-84
2022/05/10 14:15:39;;;;;;;3.00;2.70;;;;;;;;;;5055884;28;20414;-85
2022/05/10 14:18:12;;;;;;;3.73;3.30;;;;;;;;;;5044941;28;20413;-84
2022/05/10 14:20:41;;;;;;;3.77;3.20;;;;;;;;;;5053610;28;20414;-85
2022/05/10 14:23:14;;;;;;;4.03;2.90;;;;;;;;;;5047815;28;20500;-84
2022/05/10 14:25:49;;;;;;;6.40;3.57;;;;;;;;;;5056579;28;20449;-85
2022/05/10 14:28:36;;;;;;;3.37;2.50;;;;;;;;;;5039600;28;20486;-85
2022/05/10 14:31:16;;;;;;;5.33;2.90;;;;;;;;;;5021467;28;20383;-84
2022/05/10 14:33:44;;;;;;;3.10;2.80;;;;;;;;;;5030925;28;20817;-83
2022/05/10 14:36:22;;;;;;;3.87;3.30;;;;;;;;;;5040135;28;20398;-83
2022/05/10 14:38:48;;;;;;;3.50;3.13;;;;;;;;;;5039972;28;20409;-84
2022/05/10 14:41:26;;;;;;;3.50;2.37;;;;;;;;;;5039063;28;20441;-84
2022/05/10 14:43:52;;;;;;;4.37;3.70;;;;;;;;;;5040431;28;20418;-84
2022/05/10 14:46:27;;;;;;;4.67;2.97;;;;;;;;;;5041353;28;20489;-85
2022/05/10 14:49:12;;;;;;;10.13;3.00;;;;;;;;;;5051633;28;20405;-85
2022/05/10 14:51:42;;;;;;;5.00;3.33;;;;;;;;;;5063983;28;20405;-84
2022/05/10 14:54:10;;;;;;;3.33;3.03;;;;;;;;;;5041877;28;20541;-84
2022/05/10 14:56:38;;;;;;;3.43;2.73;;;;;;;;;;5041258;28;20418;-83
2022/05/10 14:59:10;;;;;;;3.30;2.90;;;;;;;;;;5041671;28;20446;-83
2022/05/10 15:01:37;;;;;;;3.97;2.57;;;;;;;;;;5040855;28;20458;-82
2022/05/10 15:04:19;;;;;;;3.50;3.00;;;;;;;;;;5056901;28;20458;-83
2022/05/10 15:06:46;;;;;;;5.13;3.20;;;;;;;;;;5041275;28;20464;-83
2022/05/10 15:09:12;;;;;;;3.00;2.50;;;;;;;;;;5040371;28;20427;-84
2022/05/10 15:14:23;;;;;;;4.80;2.73;;;;;;;;;;5038063;28;20441;-83
2022/05/10 15:16:50;;;;;;;3.83;2.47;;;;;;;;;;5042123;28;20464;-84
2022/05/10 15:19:17;;;;;;;3.23;2.80;;;;;;;;;;5043233;28;20752;-84
2022/05/10 15:21:43;;;;;;;3.50;2.17;;;;;;;;;;5043398;28;20411;-83
2022/05/10 15:24:10;;;;;;;4.83;3.00;;;;;;;;;;5036603;28;20568;-84
2022/05/10 15:26:41;;;;;;;4.40;2.77;;;;;;;;;;5037490;28;20418;-84
2022/05/10 15:29:11;;;;;;;3.93;2.80;;;;;;;;;;5037742;28;20479;-84
2022/05/10 15:31:37;;;;;;;3.00;2.70;;;;;;;;;;5040887;28;20415;-84
2022/05/10 15:34:42;;;;;;;4.97;3.00;;;;;;;;;;5042200;28;20449;-84
2022/05/10 15:36:49;;;;;;;5.97;2.50;;;;;;;;;;5043311;28;20436;-82
2022/05/10 15:39:15;;;;;;;3.40;2.60;;;;;;;;;;5045865;28;20241;-84
2022/05/10 15:41:41;;;;;;;7.87;3.00;;;;;;;;;;5046841;28;20434;-83
2022/05/10 15:44:08;;;;;;;3.10;2.80;;;;;;;;;;5047186;28;20457;-82
2022/05/10 15:46:34;;;;;;;3.80;2.43;;;;;;;;;;5047998;28;20461;-84
2022/05/10 15:49:00;;;;;;;4.00;3.00;;;;;;;;;;5048212;28;20398;-84
2022/05/10 15:51:26;;;;;;;4.90;2.73;;;;;;;;;;5048861;28;20422;-84
2022/05/10 15:53:52;;;;;;;4.07;3.10;;;;;;;;;;5047508;28;20942;-84
2022/05/10 15:56:19;;;;;;;3.90;2.70;;;;;;;;;;5047051;28;20402;-83
2022/05/10 15:58:45;;;;;;;6.32;2.90;;;;;;;;;;5046532;28;20413;-84
2022/05/10 16:01:12;;;;;;;4.53;2.73;;;;;;;;;;5047485;28;20167;-84
2022/05/10 16:03:38;;;;;;;4.10;2.77;;;;;;;;;;5047733;28;20469;-84